sensor_id;sensor_type;location;lat;lon;timestamp;pressure;altitude;pressure_sealevel;temperature;humidity
6032;BME280;3044;43.232;27.972;2023-01-24T00:00:11;44268.44;;;-143.84;82.75
6032;BME280;3044;43.232;27.972;2023-01-24T00:02:40;44247.50;;;-143.84;82.84
6032;BME280;3044;43.232;27.972;2023-01-24T00:05:07;44274.16;;;-143.84;82.56
6032;BME280;3044;43.232;27.972;2023-01-24T00:07:35;44295.09;;;-143.84;82.91
6032;BME280;3044;43.232;27.972;2023-01-24T00:10:02;44236.09;;;-143.84;82.72
6032;BME280;3044;43.232;27.972;2023-01-24T00:12:30;44251.31;;;-143.84;82.75
6032;BME280;3044;43.232;27.972;2023-01-24T00:14:58;44239.91;;;-143.84;82.99
6032;BME280;3044;43.232;27.972;2023-01-24T00:17:25;44199.91;;;-143.84;82.67
6032;BME280;3044;43.232;27.972;2023-01-24T00:19:53;44203.72;;;-143.84;82.87
6032;BME280;3044;43.232;27.972;2023-01-24T00:22:20;44270.34;;;-143.84;82.67
6032;BME280;3044;43.232;27.972;2023-01-24T00:24:47;44218.94;;;-143.84;82.61
6032;BME280;3044;43.232;27.972;2023-01-24T00:27:15;44300.81;;;-143.84;82.33
6032;BME280;3044;43.232;27.972;2023-01-24T00:29:42;44255.13;;;-143.84;82.68
6032;BME280;3044;43.232;27.972;2023-01-24T00:32:09;44222.75;;;-143.84;83.13
6032;BME280;3044;43.232;27.972;2023-01-24T00:34:36;44169.47;;;-143.84;83.01
6032;BME280;3044;43.232;27.972;2023-01-24T00:37:05;44148.53;;;-143.84;83.33
6032;BME280;3044;43.232;27.972;2023-01-24T00:39:33;44140.91;;;-143.84;83.12
6032;BME280;3044;43.232;27.972;2023-01-24T00:42:00;44095.22;;;-143.84;83.43
6032;BME280;3044;43.232;27.972;2023-01-24T00:44:28;44066.66;;;-143.84;83.78
6032;BME280;3044;43.232;27.972;2023-01-24T00:46:55;44066.66;;;-143.84;83.49
6032;BME280;3044;43.232;27.972;2023-01-24T00:49:22;44040.00;;;-143.84;83.61
6032;BME280;3044;43.232;27.972;2023-01-24T00:51:49;44019.06;;;-143.84;83.26
6032;BME280;3044;43.232;27.972;2023-01-24T00:54:18;44032.41;;;-143.84;83.59
6032;BME280;3044;43.232;27.972;2023-01-24T00:56:45;44024.78;;;-143.84;83.72
6032;BME280;3044;43.232;27.972;2023-01-24T00:59:12;44022.88;;;-143.84;83.75
6032;BME280;3044;43.232;27.972;2023-01-24T01:01:40;44015.25;;;-143.84;84.14
6032;BME280;3044;43.232;27.972;2023-01-24T01:04:07;43979.09;;;-143.84;84.49
6032;BME280;3044;43.232;27.972;2023-01-24T01:06:34;43961.97;;;-143.84;84.05
6032;BME280;3044;43.232;27.972;2023-01-24T01:09:01;43948.63;;;-143.84;84.79
6032;BME280;3044;43.232;27.972;2023-01-24T01:11:30;43967.69;;;-143.84;84.19
6032;BME280;3044;43.232;27.972;2023-01-24T01:13:57;43935.31;;;-143.84;84.30
6032;BME280;3044;43.232;27.972;2023-01-24T01:16:24;43906.75;;;-143.84;84.82
6032;BME280;3044;43.232;27.972;2023-01-24T01:18:54;43914.38;;;-143.84;84.57
6032;BME280;3044;43.232;27.972;2023-01-24T01:21:22;43904.84;;;-143.84;85.17
6032;BME280;3044;43.232;27.972;2023-01-24T01:23:49;43939.13;;;-143.84;84.97
6032;BME280;3044;43.232;27.972;2023-01-24T01:26:19;43918.19;;;-143.84;84.97
6032;BME280;3044;43.232;27.972;2023-01-24T01:28:48;43885.81;;;-143.84;84.65
6032;BME280;3044;43.232;27.972;2023-01-24T01:31:16;43937.22;;;-143.84;85.02
6032;BME280;3044;43.232;27.972;2023-01-24T01:33:43;43956.25;;;-143.84;84.83
6032;BME280;3044;43.232;27.972;2023-01-24T01:36:11;43944.84;;;-143.84;84.84
6032;BME280;3044;43.232;27.972;2023-01-24T01:38:38;43904.84;;;-143.84;85.17
6032;BME280;3044;43.232;27.972;2023-01-24T01:41:05;43929.59;;;-143.84;85.30
6032;BME280;3044;43.232;27.972;2023-01-24T01:43:32;43916.28;;;-143.84;85.28
6032;BME280;3044;43.232;27.972;2023-01-24T01:46:07;43893.44;;;-143.84;85.58
6032;BME280;3044;43.232;27.972;2023-01-24T01:48:45;43920.09;;;-143.84;85.47
6032;BME280;3044;43.232;27.972;2023-01-24T01:51:18;43910.56;;;-143.84;85.36
6032;BME280;3044;43.232;27.972;2023-01-24T01:53:49;43904.84;;;-143.84;85.44
6032;BME280;3044;43.232;27.972;2023-01-24T01:56:22;43885.81;;;-143.84;85.22
6032;BME280;3044;43.232;27.972;2023-01-24T01:58:53;43906.75;;;-143.84;85.60
6032;BME280;3044;43.232;27.972;2023-01-24T02:01:23;43906.75;;;-143.84;85.12
6032;BME280;3044;43.232;27.972;2023-01-24T02:03:55;43899.16;;;-143.84;85.25
6032;BME280;3044;43.232;27.972;2023-01-24T02:06:46;43920.09;;;-143.84;85.35
6032;BME280;3044;43.232;27.972;2023-01-24T02:09:20;43916.28;;;-143.84;85.13
6032;BME280;3044;43.232;27.972;2023-01-24T02:11:48;43895.34;;;-143.84;85.08
6032;BME280;3044;43.232;27.972;2023-01-24T02:14:18;43910.56;;;-143.84;84.91
6032;BME280;3044;43.232;27.972;2023-01-24T02:17:05;43889.63;;;-143.84;85.67
6032;BME280;3044;43.232;27.972;2023-01-24T02:19:46;43889.63;;;-143.84;85.62
6032;BME280;3044;43.232;27.972;2023-01-24T02:22:22;43904.84;;;-143.84;85.23
6032;BME280;3044;43.232;27.972;2023-01-24T02:25:00;43912.47;;;-143.84;85.34
6032;BME280;3044;43.232;27.972;2023-01-24T02:27:30;43918.19;;;-143.84;85.06
6032;BME280;3044;43.232;27.972;2023-01-24T02:29:58;43883.91;;;-143.84;85.37
6032;BME280;3044;43.232;27.972;2023-01-24T02:32:26;43912.47;;;-143.84;85.62
6032;BME280;3044;43.232;27.972;2023-01-24T02:34:53;43916.28;;;-143.84;85.26
6032;BME280;3044;43.232;27.972;2023-01-24T02:37:20;43874.41;;;-143.84;85.49
6032;BME280;3044;43.232;27.972;2023-01-24T02:39:53;43895.34;;;-143.84;85.34
6032;BME280;3044;43.232;27.972;2023-01-24T02:42:24;43899.16;;;-143.84;85.44
6032;BME280;3044;43.232;27.972;2023-01-24T02:44:57;43910.56;;;-143.84;85.18
6032;BME280;3044;43.232;27.972;2023-01-24T02:47:31;43876.31;;;-143.84;85.14
6032;BME280;3044;43.232;27.972;2023-01-24T02:50:00;43880.13;;;-143.84;85.47
6032;BME280;3044;43.232;27.972;2023-01-24T02:52:27;43895.34;;;-143.84;85.47
6032;BME280;3044;43.232;27.972;2023-01-24T02:55:12;43904.84;;;-143.84;84.98
6032;BME280;3044;43.232;27.972;2023-01-24T02:57:39;43901.06;;;-143.84;85.18
6032;BME280;3044;43.232;27.972;2023-01-24T03:00:25;43923.91;;;-143.84;84.87
6032;BME280;3044;43.232;27.972;2023-01-24T03:02:53;43950.53;;;-143.84;84.86
6032;BME280;3044;43.232;27.972;2023-01-24T03:05:20;43906.75;;;-143.84;84.63
6032;BME280;3044;43.232;27.972;2023-01-24T03:07:47;43946.75;;;-143.84;84.94
6032;BME280;3044;43.232;27.972;2023-01-24T03:10:16;43973.38;;;-143.84;84.82
6032;BME280;3044;43.232;27.972;2023-01-24T03:12:43;43885.81;;;-143.84;84.67
6032;BME280;3044;43.232;27.972;2023-01-24T03:15:30;43954.34;;;-143.84;84.69
6032;BME280;3044;43.232;27.972;2023-01-24T03:18:14;43912.47;;;-143.84;84.69
6032;BME280;3044;43.232;27.972;2023-01-24T03:21:02;43950.53;;;-143.84;84.60
6032;BME280;3044;43.232;27.972;2023-01-24T03:23:47;43941.03;;;-143.84;84.57
6032;BME280;3044;43.232;27.972;2023-01-24T03:26:31;43967.69;;;-143.84;84.69
6032;BME280;3044;43.232;27.972;2023-01-24T03:29:16;43982.91;;;-143.84;84.49
6032;BME280;3044;43.232;27.972;2023-01-24T03:32:02;43958.16;;;-143.84;84.57
6032;BME280;3044;43.232;27.972;2023-01-24T03:34:47;43981.00;;;-143.84;84.19
6032;BME280;3044;43.232;27.972;2023-01-24T03:37:16;43956.25;;;-143.84;83.99
6032;BME280;3044;43.232;27.972;2023-01-24T03:40:06;43958.16;;;-143.84;84.40
6032;BME280;3044;43.232;27.972;2023-01-24T03:42:34;43944.84;;;-143.84;84.53
6032;BME280;3044;43.232;27.972;2023-01-24T03:45:12;43956.25;;;-143.84;84.37
6032;BME280;3044;43.232;27.972;2023-01-24T03:47:46;43992.41;;;-143.84;84.67
6032;BME280;3044;43.232;27.972;2023-01-24T03:50:21;43967.69;;;-143.84;84.13
6032;BME280;3044;43.232;27.972;2023-01-24T03:53:06;43971.47;;;-143.84;84.43
6032;BME280;3044;43.232;27.972;2023-01-24T03:55:34;43923.91;;;-143.84;84.92
6032;BME280;3044;43.232;27.972;2023-01-24T03:58:01;43902.97;;;-143.84;85.31
6032;BME280;3044;43.232;27.972;2023-01-24T04:00:28;43933.41;;;-143.84;85.34
6032;BME280;3044;43.232;27.972;2023-01-24T04:02:57;43927.69;;;-143.84;85.09
6032;BME280;3044;43.232;27.972;2023-01-24T04:05:24;43922.00;;;-143.84;84.97
6032;BME280;3044;43.232;27.972;2023-01-24T04:07:52;43922.00;;;-143.84;85.14
6032;BME280;3044;43.232;27.972;2023-01-24T04:10:20;43941.03;;;-143.84;84.70
6032;BME280;3044;43.232;27.972;2023-01-24T04:12:48;43971.47;;;-143.84;84.85
6032;BME280;3044;43.232;27.972;2023-01-24T04:15:17;43935.31;;;-143.84;84.88
6032;BME280;3044;43.232;27.972;2023-01-24T04:17:44;43963.88;;;-143.84;84.75
6032;BME280;3044;43.232;27.972;2023-01-24T04:20:14;44003.84;;;-143.84;84.31
6032;BME280;3044;43.232;27.972;2023-01-24T04:22:41;44100.94;;;-143.84;84.11
6032;BME280;3044;43.232;27.972;2023-01-24T04:25:09;43986.72;;;-143.84;84.07
6032;BME280;3044;43.232;27.972;2023-01-24T04:27:36;44055.25;;;-143.84;83.61
6032;BME280;3044;43.232;27.972;2023-01-24T04:30:04;44150.41;;;-143.84;83.23
6032;BME280;3044;43.232;27.972;2023-01-24T04:32:32;44080.00;;;-143.84;83.78
6032;BME280;3044;43.232;27.972;2023-01-24T04:34:59;44177.06;;;-143.84;83.23
6032;BME280;3044;43.232;27.972;2023-01-24T04:37:30;44228.47;;;-143.84;82.95
6032;BME280;3044;43.232;27.972;2023-01-24T04:39:58;44209.44;;;-143.84;83.24
6032;BME280;3044;43.232;27.972;2023-01-24T04:42:26;44268.44;;;-143.84;82.52
6032;BME280;3044;43.232;27.972;2023-01-24T04:44:53;44333.19;;;-143.84;82.82
6032;BME280;3044;43.232;27.972;2023-01-24T04:47:21;44323.66;;;-143.84;82.55
6032;BME280;3044;43.232;27.972;2023-01-24T04:49:48;44386.47;;;-143.84;82.19
6032;BME280;3044;43.232;27.972;2023-01-24T04:52:15;44434.09;;;-143.84;82.21
6032;BME280;3044;43.232;27.972;2023-01-24T04:54:43;44512.13;;;-143.84;82.07
6032;BME280;3044;43.232;27.972;2023-01-24T04:57:13;44466.44;;;-143.84;82.47
6032;BME280;3044;43.232;27.972;2023-01-24T04:59:41;44375.06;;;-143.84;82.33
6032;BME280;3044;43.232;27.972;2023-01-24T05:02:08;44483.56;;;-143.84;81.96
6032;BME280;3044;43.232;27.972;2023-01-24T05:04:35;44531.19;;;-143.84;82.18
6032;BME280;3044;43.232;27.972;2023-01-24T05:07:03;44508.31;;;-143.84;82.18
6032;BME280;3044;43.232;27.972;2023-01-24T05:09:30;44500.72;;;-143.84;82.59
6032;BME280;3044;43.232;27.972;2023-01-24T05:11:59;44316.03;;;-143.84;82.81
6032;BME280;3044;43.232;27.972;2023-01-24T05:14:26;44401.72;;;-143.84;82.50
6032;BME280;3044;43.232;27.972;2023-01-24T05:16:54;44439.78;;;-143.84;82.27
6032;BME280;3044;43.232;27.972;2023-01-24T05:19:21;44485.47;;;-143.84;81.97
6032;BME280;3044;43.232;27.972;2023-01-24T05:21:48;44413.13;;;-143.84;82.32
6032;BME280;3044;43.232;27.972;2023-01-24T05:24:15;44258.94;;;-143.84;83.07
6032;BME280;3044;43.232;27.972;2023-01-24T05:26:43;44319.84;;;-143.84;82.47
6032;BME280;3044;43.232;27.972;2023-01-24T05:29:12;44384.59;;;-143.84;82.35
6032;BME280;3044;43.232;27.972;2023-01-24T05:31:39;44495.00;;;-143.84;82.06
6032;BME280;3044;43.232;27.972;2023-01-24T05:34:06;44496.91;;;-143.84;81.79
6032;BME280;3044;43.232;27.972;2023-01-24T05:36:33;44443.59;;;-143.84;82.32
6032;BME280;3044;43.232;27.972;2023-01-24T05:39:01;44437.88;;;-143.84;82.17
6032;BME280;3044;43.232;27.972;2023-01-24T05:41:28;44460.72;;;-143.84;82.42
6032;BME280;3044;43.232;27.972;2023-01-24T05:43:55;44472.16;;;-143.84;82.00
6032;BME280;3044;43.232;27.972;2023-01-24T05:46:24;44544.50;;;-143.84;82.23
6032;BME280;3044;43.232;27.972;2023-01-24T05:48:51;44515.94;;;-143.84;82.23
6032;BME280;3044;43.232;27.972;2023-01-24T05:51:19;44527.38;;;-143.84;82.27
6032;BME280;3044;43.232;27.972;2023-01-24T05:53:46;44527.38;;;-143.84;82.25
6032;BME280;3044;43.232;27.972;2023-01-24T05:56:15;44594.00;;;-143.84;81.54
6032;BME280;3044;43.232;27.972;2023-01-24T05:58:44;44592.09;;;-143.84;81.90
6032;BME280;3044;43.232;27.972;2023-01-24T06:01:13;44649.22;;;-143.84;81.78
6032;BME280;3044;43.232;27.972;2023-01-24T06:03:45;44630.19;;;-143.84;81.79
6032;BME280;3044;43.232;27.972;2023-01-24T06:06:13;44586.38;;;-143.84;81.51
6032;BME280;3044;43.232;27.972;2023-01-24T06:08:41;44639.69;;;-143.84;81.80
6032;BME280;3044;43.232;27.972;2023-01-24T06:11:10;44662.53;;;-143.84;80.99
6032;BME280;3044;43.232;27.972;2023-01-24T06:13:38;44694.91;;;-143.84;80.95
6032;BME280;3044;43.232;27.972;2023-01-24T06:16:07;44740.59;;;-143.84;81.19
6032;BME280;3044;43.232;27.972;2023-01-24T06:18:36;44736.81;;;-143.84;81.42
6032;BME280;3044;43.232;27.972;2023-01-24T06:21:16;44744.41;;;-143.84;81.11
6032;BME280;3044;43.232;27.972;2023-01-24T06:23:49;44752.03;;;-143.84;81.10
6032;BME280;3044;43.232;27.972;2023-01-24T06:26:17;44835.81;;;-143.84;80.58
6032;BME280;3044;43.232;27.972;2023-01-24T06:28:45;44830.09;;;-143.84;80.59
6032;BME280;3044;43.232;27.972;2023-01-24T06:31:20;44898.66;;;-143.84;79.93
6032;BME280;3044;43.232;27.972;2023-01-24T06:34:01;44891.03;;;-143.84;80.13
6032;BME280;3044;43.232;27.972;2023-01-24T06:36:47;44965.28;;;-143.84;79.74
6032;BME280;3044;43.232;27.972;2023-01-24T06:39:19;44953.88;;;-143.84;79.81
6032;BME280;3044;43.232;27.972;2023-01-24T06:41:48;44961.47;;;-143.84;79.54
6032;BME280;3044;43.232;27.972;2023-01-24T06:44:16;45018.59;;;-143.84;79.22
6032;BME280;3044;43.232;27.972;2023-01-24T06:46:43;45043.34;;;-143.84;78.35
6032;BME280;3044;43.232;27.972;2023-01-24T06:49:10;45071.91;;;-143.84;77.82
6032;BME280;3044;43.232;27.972;2023-01-24T06:51:38;45098.56;;;-143.84;78.07
6032;BME280;3044;43.232;27.972;2023-01-24T06:54:06;45087.16;;;-143.84;77.59
6032;BME280;3044;43.232;27.972;2023-01-24T06:56:34;45085.25;;;-143.84;77.85
6032;BME280;3044;43.232;27.972;2023-01-24T06:59:01;45077.63;;;-143.84;78.13
6032;BME280;3044;43.232;27.972;2023-01-24T07:01:28;45075.72;;;-143.84;78.34
6032;BME280;3044;43.232;27.972;2023-01-24T07:03:55;45070.00;;;-143.84;78.25
6032;BME280;3044;43.232;27.972;2023-01-24T07:06:22;45064.31;;;-143.84;77.97
6032;BME280;3044;43.232;27.972;2023-01-24T07:08:49;45056.69;;;-143.84;77.82
6032;BME280;3044;43.232;27.972;2023-01-24T07:11:18;45049.06;;;-143.84;78.10
6032;BME280;3044;43.232;27.972;2023-01-24T07:13:45;45041.44;;;-143.84;78.11
6032;BME280;3044;43.232;27.972;2023-01-24T07:16:12;45083.34;;;-143.84;77.87
6032;BME280;3044;43.232;27.972;2023-01-24T07:18:40;45030.03;;;-143.84;78.32
6032;BME280;3044;43.232;27.972;2023-01-24T07:21:08;45031.94;;;-143.84;78.46
6032;BME280;3044;43.232;27.972;2023-01-24T07:23:37;45022.41;;;-143.84;78.96
6032;BME280;3044;43.232;27.972;2023-01-24T07:26:07;45075.72;;;-143.84;78.15
6032;BME280;3044;43.232;27.972;2023-01-24T07:28:38;45081.44;;;-143.84;77.88
6032;BME280;3044;43.232;27.972;2023-01-24T07:31:07;45062.41;;;-143.84;77.68
6032;BME280;3044;43.232;27.972;2023-01-24T07:33:34;45115.72;;;-143.84;77.17
6032;BME280;3044;43.232;27.972;2023-01-24T07:36:10;45085.25;;;-143.84;77.40
6032;BME280;3044;43.232;27.972;2023-01-24T07:38:37;45163.31;;;-143.84;77.00
6032;BME280;3044;43.232;27.972;2023-01-24T07:41:06;45155.69;;;-143.84;76.51
6032;BME280;3044;43.232;27.972;2023-01-24T07:43:33;45153.81;;;-143.84;75.98
6032;BME280;3044;43.232;27.972;2023-01-24T07:46:02;45170.94;;;-143.84;76.00
6032;BME280;3044;43.232;27.972;2023-01-24T07:48:30;45184.25;;;-143.84;76.03
6032;BME280;3044;43.232;27.972;2023-01-24T07:50:58;45157.59;;;-143.84;75.88
6032;BME280;3044;43.232;27.972;2023-01-24T07:53:26;45142.38;;;-143.84;75.77
6032;BME280;3044;43.232;27.972;2023-01-24T07:55:53;45186.16;;;-143.84;75.51
6032;BME280;3044;43.232;27.972;2023-01-24T07:58:22;45176.66;;;-143.84;76.04
6032;BME280;3044;43.232;27.972;2023-01-24T08:00:50;45144.28;;;-143.84;75.95
6032;BME280;3044;43.232;27.972;2023-01-24T08:03:18;45169.03;;;-143.84;75.41
6032;BME280;3044;43.232;27.972;2023-01-24T08:05:45;45189.97;;;-143.84;75.48
6032;BME280;3044;43.232;27.972;2023-01-24T08:08:13;45189.97;;;-143.84;75.67
6032;BME280;3044;43.232;27.972;2023-01-24T08:10:40;45146.19;;;-143.84;75.59
6032;BME280;3044;43.232;27.972;2023-01-24T08:13:07;45174.75;;;-143.84;75.56
6032;BME280;3044;43.232;27.972;2023-01-24T08:15:34;45163.31;;;-143.84;75.91
6032;BME280;3044;43.232;27.972;2023-01-24T08:18:01;45150.00;;;-143.84;76.15
6032;BME280;3044;43.232;27.972;2023-01-24T08:20:30;45169.03;;;-143.84;75.41
6032;BME280;3044;43.232;27.972;2023-01-24T08:22:57;45172.84;;;-143.84;75.31
6032;BME280;3044;43.232;27.972;2023-01-24T08:25:25;45170.94;;;-143.84;75.04
6032;BME280;3044;43.232;27.972;2023-01-24T08:27:52;45161.41;;;-143.84;75.64
6032;BME280;3044;43.232;27.972;2023-01-24T08:30:20;45172.84;;;-143.84;75.50
6032;BME280;3044;43.232;27.972;2023-01-24T08:32:47;45195.69;;;-143.84;74.72
6032;BME280;3044;43.232;27.972;2023-01-24T08:35:14;45210.94;;;-143.84;75.09
6032;BME280;3044;43.232;27.972;2023-01-24T08:37:43;45191.88;;;-143.84;74.94
6032;BME280;3044;43.232;27.972;2023-01-24T08:40:11;45170.94;;;-143.84;74.87
6032;BME280;3044;43.232;27.972;2023-01-24T08:42:38;45172.84;;;-143.84;74.65
6032;BME280;3044;43.232;27.972;2023-01-24T08:45:06;45184.25;;;-143.84;74.75
6032;BME280;3044;43.232;27.972;2023-01-24T08:47:33;45172.84;;;-143.84;74.30
6032;BME280;3044;43.232;27.972;2023-01-24T08:50:03;45188.06;;;-143.84;74.32
6032;BME280;3044;43.232;27.972;2023-01-24T08:52:31;45169.03;;;-143.84;74.14
6032;BME280;3044;43.232;27.972;2023-01-24T08:54:59;45224.25;;;-143.84;73.67
6032;BME280;3044;43.232;27.972;2023-01-24T08:57:27;45186.16;;;-143.84;73.67
6032;BME280;3044;43.232;27.972;2023-01-24T08:59:54;45201.41;;;-143.84;73.79
6032;BME280;3044;43.232;27.972;2023-01-24T09:02:22;45191.88;;;-143.84;74.06
6032;BME280;3044;43.232;27.972;2023-01-24T09:04:49;45216.63;;;-143.84;73.70
6032;BME280;3044;43.232;27.972;2023-01-24T09:07:16;45220.44;;;-143.84;72.96
6032;BME280;3044;43.232;27.972;2023-01-24T09:09:43;45231.88;;;-143.84;72.85
6032;BME280;3044;43.232;27.972;2023-01-24T09:12:12;45176.66;;;-143.84;72.90
6032;BME280;3044;43.232;27.972;2023-01-24T09:14:39;45220.44;;;-143.84;73.30
6032;BME280;3044;43.232;27.972;2023-01-24T09:17:06;45197.59;;;-143.84;74.06
6032;BME280;3044;43.232;27.972;2023-01-24T09:19:33;45170.94;;;-143.84;73.73
6032;BME280;3044;43.232;27.972;2023-01-24T09:22:01;45189.97;;;-143.84;73.66
6032;BME280;3044;43.232;27.972;2023-01-24T09:24:29;45191.88;;;-143.84;73.25
6032;BME280;3044;43.232;27.972;2023-01-24T09:26:56;45220.44;;;-143.84;72.24
6032;BME280;3044;43.232;27.972;2023-01-24T09:29:24;45189.97;;;-143.84;71.72
6032;BME280;3044;43.232;27.972;2023-01-24T09:31:51;45210.94;;;-143.84;71.31
6032;BME280;3044;43.232;27.972;2023-01-24T09:34:20;45222.34;;;-143.84;71.65
6032;BME280;3044;43.232;27.972;2023-01-24T09:36:48;45229.97;;;-143.84;70.99
6032;BME280;3044;43.232;27.972;2023-01-24T09:39:16;45231.88;;;-143.84;70.73
6032;BME280;3044;43.232;27.972;2023-01-24T09:41:55;45231.88;;;-143.84;70.58
6032;BME280;3044;43.232;27.972;2023-01-24T09:44:34;45201.41;;;-143.84;70.52
6032;BME280;3044;43.232;27.972;2023-01-24T09:47:14;45229.97;;;-143.84;70.52
6032;BME280;3044;43.232;27.972;2023-01-24T09:49:47;45214.72;;;-143.84;70.24
6032;BME280;3044;43.232;27.972;2023-01-24T09:52:24;45226.16;;;-143.84;69.47
6032;BME280;3044;43.232;27.972;2023-01-24T09:54:57;45220.44;;;-143.84;69.57
6032;BME280;3044;43.232;27.972;2023-01-24T09:57:29;45209.03;;;-143.84;69.73
6032;BME280;3044;43.232;27.972;2023-01-24T10:00:04;45235.69;;;-143.84;69.80
6032;BME280;3044;43.232;27.972;2023-01-24T10:02:36;45220.44;;;-143.84;69.18
6032;BME280;3044;43.232;27.972;2023-01-24T10:05:04;45226.16;;;-143.84;68.78
6032;BME280;3044;43.232;27.972;2023-01-24T10:10:53;45228.06;;;-143.84;68.72
6032;BME280;3044;43.232;27.972;2023-01-24T10:13:36;45226.16;;;-143.84;68.49
6032;BME280;3044;43.232;27.972;2023-01-24T10:16:18;45247.09;;;-143.84;68.67
6032;BME280;3044;43.232;27.972;2023-01-24T10:19:06;45262.34;;;-143.84;69.28
6032;BME280;3044;43.232;27.972;2023-01-24T10:22:02;45220.44;;;-143.84;68.68
6032;BME280;3044;43.232;27.972;2023-01-24T10:24:33;45201.41;;;-143.84;68.32
6032;BME280;3044;43.232;27.972;2023-01-24T10:27:09;45247.09;;;-143.84;68.09
6032;BME280;3044;43.232;27.972;2023-01-24T10:29:41;45222.34;;;-143.84;68.23
6032;BME280;3044;43.232;27.972;2023-01-24T10:32:14;45252.81;;;-143.84;68.03
6032;BME280;3044;43.232;27.972;2023-01-24T10:34:44;45224.25;;;-143.84;68.17
6032;BME280;3044;43.232;27.972;2023-01-24T10:37:19;45231.88;;;-143.84;68.39
6032;BME280;3044;43.232;27.972;2023-01-24T10:39:48;45224.25;;;-143.84;68.04
6032;BME280;3044;43.232;27.972;2023-01-24T10:42:21;45205.22;;;-143.84;67.10
6032;BME280;3044;43.232;27.972;2023-01-24T10:44:50;45216.63;;;-143.84;66.04
6032;BME280;3044;43.232;27.972;2023-01-24T10:47:46;45229.97;;;-143.84;65.89
6032;BME280;3044;43.232;27.972;2023-01-24T10:50:17;45245.19;;;-143.84;65.59
6032;BME280;3044;43.232;27.972;2023-01-24T10:52:45;45258.53;;;-143.84;66.07
6032;BME280;3044;43.232;27.972;2023-01-24T10:55:32;45233.78;;;-143.84;66.40
6032;BME280;3044;43.232;27.972;2023-01-24T10:58:02;45205.22;;;-143.84;66.54
6032;BME280;3044;43.232;27.972;2023-01-24T11:00:33;45269.97;;;-143.84;65.52
6032;BME280;3044;43.232;27.972;2023-01-24T11:03:04;45262.34;;;-143.84;65.75
6032;BME280;3044;43.232;27.972;2023-01-24T11:05:37;45231.88;;;-143.84;65.62
6032;BME280;3044;43.232;27.972;2023-01-24T11:08:04;45231.88;;;-143.84;65.86
6032;BME280;3044;43.232;27.972;2023-01-24T11:10:36;45254.72;;;-143.84;65.74
6032;BME280;3044;43.232;27.972;2023-01-24T11:13:23;45222.34;;;-143.84;66.40
6032;BME280;3044;43.232;27.972;2023-01-24T11:15:55;45218.53;;;-143.84;65.61
6032;BME280;3044;43.232;27.972;2023-01-24T11:18:28;45243.31;;;-143.84;65.73
6032;BME280;3044;43.232;27.972;2023-01-24T11:21:11;45226.16;;;-143.84;65.59
6032;BME280;3044;43.232;27.972;2023-01-24T11:23:39;45256.63;;;-143.84;66.10
6032;BME280;3044;43.232;27.972;2023-01-24T11:26:20;45235.69;;;-143.84;66.29
6032;BME280;3044;43.232;27.972;2023-01-24T11:28:59;45243.31;;;-143.84;65.63
6032;BME280;3044;43.232;27.972;2023-01-24T11:31:33;45250.91;;;-143.84;65.45
6032;BME280;3044;43.232;27.972;2023-01-24T11:34:30;45210.94;;;-143.84;66.04
6032;BME280;3044;43.232;27.972;2023-01-24T11:37:15;45218.53;;;-143.84;66.79
6032;BME280;3044;43.232;27.972;2023-01-24T11:39:48;45241.41;;;-143.84;66.73
6032;BME280;3044;43.232;27.972;2023-01-24T11:42:28;45210.94;;;-143.84;67.01
6032;BME280;3044;43.232;27.972;2023-01-24T11:45:26;45235.69;;;-143.84;67.04
6032;BME280;3044;43.232;27.972;2023-01-24T11:48:06;45229.97;;;-143.84;68.03
6032;BME280;3044;43.232;27.972;2023-01-24T11:50:48;45249.00;;;-143.84;68.80
6032;BME280;3044;43.232;27.972;2023-01-24T11:53:37;45231.88;;;-143.84;69.02
6032;BME280;3044;43.232;27.972;2023-01-24T11:56:14;45243.31;;;-143.84;68.40
6032;BME280;3044;43.232;27.972;2023-01-24T11:59:05;45222.34;;;-143.84;68.41
6032;BME280;3044;43.232;27.972;2023-01-24T12:01:45;45229.97;;;-143.84;68.60
6032;BME280;3044;43.232;27.972;2023-01-24T12:04:29;45216.63;;;-143.84;68.76
6032;BME280;3044;43.232;27.972;2023-01-24T12:07:12;45216.63;;;-143.84;69.42
6032;BME280;3044;43.232;27.972;2023-01-24T12:09:48;45247.09;;;-143.84;69.01
6032;BME280;3044;43.232;27.972;2023-01-24T12:12:20;45205.22;;;-143.84;68.92
6032;BME280;3044;43.232;27.972;2023-01-24T12:15:02;45241.41;;;-143.84;68.83
6032;BME280;3044;43.232;27.972;2023-01-24T12:17:54;45224.25;;;-143.84;69.41
6032;BME280;3044;43.232;27.972;2023-01-24T12:23:41;45220.44;;;-143.84;69.95
6032;BME280;3044;43.232;27.972;2023-01-24T12:26:13;45212.84;;;-143.84;69.93
6032;BME280;3044;43.232;27.972;2023-01-24T12:28:47;45205.22;;;-143.84;70.13
6032;BME280;3044;43.232;27.972;2023-01-24T12:31:24;45216.63;;;-143.84;70.94
6032;BME280;3044;43.232;27.972;2023-01-24T12:33:57;45195.69;;;-143.84;70.88
6032;BME280;3044;43.232;27.972;2023-01-24T12:36:33;45203.31;;;-143.84;70.91
6032;BME280;3044;43.232;27.972;2023-01-24T12:39:14;45214.72;;;-143.84;70.51
6032;BME280;3044;43.232;27.972;2023-01-24T12:41:44;45233.78;;;-143.84;70.40
6032;BME280;3044;43.232;27.972;2023-01-24T12:47:28;45220.44;;;-143.84;70.80
6032;BME280;3044;43.232;27.972;2023-01-24T12:50:11;45159.50;;;-143.84;70.65
6032;BME280;3044;43.232;27.972;2023-01-24T12:52:44;45226.16;;;-143.84;69.95
6032;BME280;3044;43.232;27.972;2023-01-24T12:55:17;45201.41;;;-143.84;70.31
6032;BME280;3044;43.232;27.972;2023-01-24T12:57:49;45264.25;;;-143.84;70.46
6032;BME280;3044;43.232;27.972;2023-01-24T13:00:18;45212.84;;;-143.84;71.25
6032;BME280;3044;43.232;27.972;2023-01-24T13:05:49;45210.94;;;-143.84;71.25
6032;BME280;3044;43.232;27.972;2023-01-24T13:08:28;45186.16;;;-143.84;71.46
6032;BME280;3044;43.232;27.972;2023-01-24T13:11:10;45197.59;;;-143.84;71.86
6032;BME280;3044;43.232;27.972;2023-01-24T13:13:45;45195.69;;;-143.84;72.24
6032;BME280;3044;43.232;27.972;2023-01-24T13:19:32;45220.44;;;-143.84;72.88
6032;BME280;3044;43.232;27.972;2023-01-24T13:22:16;45174.75;;;-143.84;73.39
6032;BME280;3044;43.232;27.972;2023-01-24T13:24:57;45172.84;;;-143.84;73.16
6032;BME280;3044;43.232;27.972;2023-01-24T13:27:36;45201.41;;;-143.84;73.08